sensor_id;sensor_type;location;lat;lon;timestamp;P1;durP1;ratioP1;P2;durP2;ratioP2
59685;SDS011;45554;51.096;16.976;2024-02-21T00:00:01;16.40;;;4.40;;
59685;SDS011;45554;51.096;16.976;2024-02-21T00:02:31;13.50;;;4.10;;
59685;SDS011;45554;51.096;16.976;2024-02-21T00:04:59;17.40;;;4.40;;
59685;SDS011;45554;51.096;16.976;2024-02-21T00:07:27;13.40;;;3.90;;
59685;SDS011;45554;51.096;16.976;2024-02-21T00:09:56;16.10;;;4.70;;
59685;SDS011;45554;51.096;16.976;2024-02-21T00:12:24;13.40;;;4.10;;
59685;SDS011;45554;51.096;16.976;2024-02-21T00:14:52;15.90;;;4.30;;
59685;SDS011;45554;51.096;16.976;2024-02-21T00:17:20;17.10;;;4.20;;
59685;SDS011;45554;51.096;16.976;2024-02-21T00:19:48;20.20;;;4.50;;
59685;SDS011;45554;51.096;16.976;2024-02-21T00:22:16;12.80;;;4.20;;
59685;SDS011;45554;51.096;16.976;2024-02-21T00:24:44;16.80;;;4.70;;
59685;SDS011;45554;51.096;16.976;2024-02-21T00:27:13;15.20;;;4.70;;
59685;SDS011;45554;51.096;16.976;2024-02-21T00:29:44;15.60;;;4.40;;
59685;SDS011;45554;51.096;16.976;2024-02-21T00:32:12;17.10;;;4.50;;
59685;SDS011;45554;51.096;16.976;2024-02-21T00:34:40;14.50;;;4.50;;
59685;SDS011;45554;51.096;16.976;2024-02-21T00:37:09;17.60;;;5.00;;
59685;SDS011;45554;51.096;16.976;2024-02-21T00:39:39;14.40;;;4.80;;
59685;SDS011;45554;51.096;16.976;2024-02-21T00:42:07;18.20;;;4.40;;
59685;SDS011;45554;51.096;16.976;2024-02-21T00:44:37;11.20;;;4.20;;
59685;SDS011;45554;51.096;16.976;2024-02-21T00:47:05;15.80;;;4.20;;
59685;SDS011;45554;51.096;16.976;2024-02-21T00:49:34;13.40;;;3.90;;
59685;SDS011;45554;51.096;16.976;2024-02-21T00:52:03;16.50;;;4.70;;
59685;SDS011;45554;51.096;16.976;2024-02-21T00:54:31;14.00;;;4.40;;
59685;SDS011;45554;51.096;16.976;2024-02-21T00:57:14;16.00;;;4.30;;
59685;SDS011;45554;51.096;16.976;2024-02-21T00:59:45;14.20;;;4.00;;
59685;SDS011;45554;51.096;16.976;2024-02-21T01:02:13;15.30;;;4.20;;
59685;SDS011;45554;51.096;16.976;2024-02-21T01:04:41;13.50;;;4.60;;
59685;SDS011;45554;51.096;16.976;2024-02-21T01:07:10;15.20;;;4.80;;
59685;SDS011;45554;51.096;16.976;2024-02-21T01:09:38;18.40;;;4.30;;
59685;SDS011;45554;51.096;16.976;2024-02-21T01:12:06;17.80;;;4.20;;
59685;SDS011;45554;51.096;16.976;2024-02-21T01:14:34;14.80;;;4.00;;
59685;SDS011;45554;51.096;16.976;2024-02-21T01:17:02;14.10;;;3.60;;
59685;SDS011;45554;51.096;16.976;2024-02-21T01:19:32;15.20;;;4.20;;
59685;SDS011;45554;51.096;16.976;2024-02-21T01:22:00;17.20;;;4.20;;
59685;SDS011;45554;51.096;16.976;2024-02-21T01:24:31;15.80;;;3.60;;
59685;SDS011;45554;51.096;16.976;2024-02-21T01:26:59;15.70;;;4.40;;
59685;SDS011;45554;51.096;16.976;2024-02-21T01:29:28;16.70;;;4.30;;
59685;SDS011;45554;51.096;16.976;2024-02-21T01:31:56;17.20;;;4.10;;
59685;SDS011;45554;51.096;16.976;2024-02-21T01:34:27;12.50;;;4.10;;
59685;SDS011;45554;51.096;16.976;2024-02-21T01:36:59;14.50;;;4.20;;
59685;SDS011;45554;51.096;16.976;2024-02-21T01:39:32;12.60;;;4.30;;
59685;SDS011;45554;51.096;16.976;2024-02-21T01:42:00;15.10;;;4.20;;
59685;SDS011;45554;51.096;16.976;2024-02-21T01:44:31;13.50;;;4.10;;
59685;SDS011;45554;51.096;16.976;2024-02-21T01:47:00;14.00;;;4.20;;
59685;SDS011;45554;51.096;16.976;2024-02-21T01:49:29;17.00;;;4.80;;
59685;SDS011;45554;51.096;16.976;2024-02-21T01:51:58;16.00;;;4.40;;
59685;SDS011;45554;51.096;16.976;2024-02-21T01:54:26;13.70;;;3.80;;
59685;SDS011;45554;51.096;16.976;2024-02-21T01:56:56;18.50;;;5.00;;
59685;SDS011;45554;51.096;16.976;2024-02-21T01:59:25;16.10;;;4.70;;
59685;SDS011;45554;51.096;16.976;2024-02-21T02:01:53;20.00;;;4.60;;
59685;SDS011;45554;51.096;16.976;2024-02-21T02:04:24;13.40;;;4.30;;
59685;SDS011;45554;51.096;16.976;2024-02-21T02:06:54;19.70;;;4.70;;
59685;SDS011;45554;51.096;16.976;2024-02-21T02:09:24;16.40;;;4.80;;
59685;SDS011;45554;51.096;16.976;2024-02-21T02:11:52;14.90;;;4.30;;
59685;SDS011;45554;51.096;16.976;2024-02-21T02:14:20;17.50;;;4.90;;
59685;SDS011;45554;51.096;16.976;2024-02-21T02:16:48;13.60;;;4.50;;
59685;SDS011;45554;51.096;16.976;2024-02-21T02:19:17;15.20;;;4.40;;
59685;SDS011;45554;51.096;16.976;2024-02-21T02:22:03;15.60;;;4.40;;
59685;SDS011;45554;51.096;16.976;2024-02-21T02:24:42;15.10;;;4.50;;
59685;SDS011;45554;51.096;16.976;2024-02-21T02:27:14;14.50;;;4.20;;
59685;SDS011;45554;51.096;16.976;2024-02-21T02:29:42;15.60;;;4.50;;
59685;SDS011;45554;51.096;16.976;2024-02-21T02:32:12;13.70;;;4.40;;
59685;SDS011;45554;51.096;16.976;2024-02-21T02:34:45;14.00;;;4.80;;
59685;SDS011;45554;51.096;16.976;2024-02-21T02:37:13;15.10;;;4.70;;
59685;SDS011;45554;51.096;16.976;2024-02-21T02:39:43;15.50;;;4.60;;
59685;SDS011;45554;51.096;16.976;2024-02-21T02:42:12;15.10;;;4.80;;
59685;SDS011;45554;51.096;16.976;2024-02-21T02:44:40;19.20;;;5.40;;
59685;SDS011;45554;51.096;16.976;2024-02-21T02:47:08;14.90;;;5.40;;
59685;SDS011;45554;51.096;16.976;2024-02-21T02:49:37;16.90;;;5.70;;
59685;SDS011;45554;51.096;16.976;2024-02-21T02:52:05;15.00;;;5.50;;
59685;SDS011;45554;51.096;16.976;2024-02-21T02:54:36;13.60;;;5.30;;
59685;SDS011;45554;51.096;16.976;2024-02-21T02:57:06;17.10;;;5.50;;
59685;SDS011;45554;51.096;16.976;2024-02-21T02:59:35;14.30;;;5.20;;
59685;SDS011;45554;51.096;16.976;2024-02-21T03:02:03;15.30;;;5.20;;
59685;SDS011;45554;51.096;16.976;2024-02-21T03:04:32;15.50;;;5.60;;
59685;SDS011;45554;51.096;16.976;2024-02-21T03:07:01;13.30;;;5.00;;
59685;SDS011;45554;51.096;16.976;2024-02-21T03:09:29;14.10;;;5.40;;
59685;SDS011;45554;51.096;16.976;2024-02-21T03:12:01;13.60;;;4.90;;
59685;SDS011;45554;51.096;16.976;2024-02-21T03:14:32;12.80;;;5.10;;
59685;SDS011;45554;51.096;16.976;2024-02-21T03:17:00;14.40;;;4.90;;
59685;SDS011;45554;51.096;16.976;2024-02-21T03:19:30;12.40;;;4.20;;
59685;SDS011;45554;51.096;16.976;2024-02-21T03:21:58;14.00;;;5.10;;
59685;SDS011;45554;51.096;16.976;2024-02-21T03:24:26;12.60;;;4.90;;
59685;SDS011;45554;51.096;16.976;2024-02-21T03:26:54;15.20;;;4.70;;
59685;SDS011;45554;51.096;16.976;2024-02-21T03:29:23;13.50;;;4.70;;
59685;SDS011;45554;51.096;16.976;2024-02-21T03:31:51;15.80;;;5.10;;
59685;SDS011;45554;51.096;16.976;2024-02-21T03:34:19;12.60;;;4.70;;
59685;SDS011;45554;51.096;16.976;2024-02-21T03:36:47;11.50;;;4.80;;
59685;SDS011;45554;51.096;16.976;2024-02-21T03:39:18;12.20;;;4.50;;
59685;SDS011;45554;51.096;16.976;2024-02-21T03:41:45;9.90;;;4.90;;
59685;SDS011;45554;51.096;16.976;2024-02-21T03:44:14;13.90;;;4.80;;
59685;SDS011;45554;51.096;16.976;2024-02-21T03:46:42;13.70;;;4.70;;
59685;SDS011;45554;51.096;16.976;2024-02-21T03:49:10;13.70;;;5.10;;
59685;SDS011;45554;51.096;16.976;2024-02-21T03:54:07;11.20;;;5.00;;
59685;SDS011;45554;51.096;16.976;2024-02-21T03:56:38;12.70;;;5.00;;
59685;SDS011;45554;51.096;16.976;2024-02-21T03:59:10;16.20;;;5.30;;
59685;SDS011;45554;51.096;16.976;2024-02-21T04:01:38;13.80;;;5.50;;
59685;SDS011;45554;51.096;16.976;2024-02-21T04:04:09;16.60;;;5.50;;
59685;SDS011;45554;51.096;16.976;2024-02-21T04:09:13;16.10;;;5.40;;
59685;SDS011;45554;51.096;16.976;2024-02-21T04:11:42;15.20;;;5.40;;
59685;SDS011;45554;51.096;16.976;2024-02-21T04:14:11;11.70;;;5.20;;
59685;SDS011;45554;51.096;16.976;2024-02-21T04:16:39;12.00;;;5.40;;
59685;SDS011;45554;51.096;16.976;2024-02-21T04:19:08;15.60;;;6.00;;
59685;SDS011;45554;51.096;16.976;2024-02-21T04:21:37;15.20;;;6.70;;
59685;SDS011;45554;51.096;16.976;2024-02-21T04:24:08;15.30;;;6.10;;
59685;SDS011;45554;51.096;16.976;2024-02-21T04:29:05;11.60;;;5.60;;
59685;SDS011;45554;51.096;16.976;2024-02-21T04:31:34;12.20;;;5.60;;
59685;SDS011;45554;51.096;16.976;2024-02-21T04:34:02;12.20;;;5.60;;
59685;SDS011;45554;51.096;16.976;2024-02-21T04:36:30;13.30;;;5.20;;
59685;SDS011;45554;51.096;16.976;2024-02-21T04:38:58;10.30;;;5.00;;
59685;SDS011;45554;51.096;16.976;2024-02-21T04:41:27;13.20;;;4.80;;
59685;SDS011;45554;51.096;16.976;2024-02-21T04:43:55;9.50;;;4.80;;
59685;SDS011;45554;51.096;16.976;2024-02-21T04:46:23;12.20;;;4.60;;
59685;SDS011;45554;51.096;16.976;2024-02-21T04:48:51;12.30;;;5.40;;
59685;SDS011;45554;51.096;16.976;2024-02-21T04:51:19;12.10;;;4.60;;
59685;SDS011;45554;51.096;16.976;2024-02-21T04:53:48;14.40;;;5.00;;
59685;SDS011;45554;51.096;16.976;2024-02-21T04:56:16;10.60;;;4.60;;
59685;SDS011;45554;51.096;16.976;2024-02-21T04:58:44;10.10;;;4.20;;
59685;SDS011;45554;51.096;16.976;2024-02-21T05:01:12;11.40;;;5.10;;
59685;SDS011;45554;51.096;16.976;2024-02-21T05:03:40;12.00;;;4.60;;
59685;SDS011;45554;51.096;16.976;2024-02-21T05:06:08;12.30;;;4.50;;
59685;SDS011;45554;51.096;16.976;2024-02-21T05:08:36;12.80;;;4.90;;
59685;SDS011;45554;51.096;16.976;2024-02-21T05:11:04;12.00;;;4.70;;
59685;SDS011;45554;51.096;16.976;2024-02-21T05:13:35;12.30;;;5.10;;
59685;SDS011;45554;51.096;16.976;2024-02-21T05:16:04;11.40;;;5.10;;
59685;SDS011;45554;51.096;16.976;2024-02-21T05:18:34;13.00;;;5.30;;
59685;SDS011;45554;51.096;16.976;2024-02-21T05:21:02;10.50;;;5.00;;
59685;SDS011;45554;51.096;16.976;2024-02-21T05:23:30;12.60;;;5.90;;
59685;SDS011;45554;51.096;16.976;2024-02-21T05:26:00;13.50;;;5.00;;
59685;SDS011;45554;51.096;16.976;2024-02-21T05:28:28;10.40;;;4.70;;
59685;SDS011;45554;51.096;16.976;2024-02-21T05:30:56;10.20;;;4.60;;
59685;SDS011;45554;51.096;16.976;2024-02-21T05:33:25;12.50;;;4.80;;
59685;SDS011;45554;51.096;16.976;2024-02-21T05:35:53;12.80;;;4.90;;
59685;SDS011;45554;51.096;16.976;2024-02-21T05:38:24;10.30;;;4.40;;
59685;SDS011;45554;51.096;16.976;2024-02-21T05:40:53;10.50;;;4.30;;
59685;SDS011;45554;51.096;16.976;2024-02-21T05:43:24;11.20;;;4.70;;
59685;SDS011;45554;51.096;16.976;2024-02-21T05:45:52;9.90;;;4.50;;
59685;SDS011;45554;51.096;16.976;2024-02-21T05:48:21;9.20;;;4.70;;
59685;SDS011;45554;51.096;16.976;2024-02-21T05:50:51;10.90;;;4.60;;
59685;SDS011;45554;51.096;16.976;2024-02-21T05:53:19;11.50;;;4.60;;
59685;SDS011;45554;51.096;16.976;2024-02-21T05:55:47;9.60;;;4.80;;
59685;SDS011;45554;51.096;16.976;2024-02-21T05:58:15;11.80;;;4.80;;
59685;SDS011;45554;51.096;16.976;2024-02-21T06:00:43;13.60;;;5.10;;
59685;SDS011;45554;51.096;16.976;2024-02-21T06:03:12;12.00;;;4.90;;
59685;SDS011;45554;51.096;16.976;2024-02-21T06:05:40;11.30;;;4.80;;
59685;SDS011;45554;51.096;16.976;2024-02-21T06:08:08;11.60;;;5.20;;
59685;SDS011;45554;51.096;16.976;2024-02-21T06:10:37;9.70;;;4.40;;
59685;SDS011;45554;51.096;16.976;2024-02-21T06:13:05;8.60;;;4.10;;
59685;SDS011;45554;51.096;16.976;2024-02-21T06:15:33;11.50;;;4.50;;
59685;SDS011;45554;51.096;16.976;2024-02-21T06:18:02;9.60;;;4.30;;
59685;SDS011;45554;51.096;16.976;2024-02-21T06:20:33;10.40;;;4.30;;
59685;SDS011;45554;51.096;16.976;2024-02-21T06:23:06;12.50;;;4.90;;
59685;SDS011;45554;51.096;16.976;2024-02-21T06:25:34;13.30;;;4.90;;
59685;SDS011;45554;51.096;16.976;2024-02-21T06:28:03;12.90;;;4.80;;
59685;SDS011;45554;51.096;16.976;2024-02-21T06:30:31;11.80;;;5.10;;
59685;SDS011;45554;51.096;16.976;2024-02-21T06:32:59;12.40;;;4.50;;
59685;SDS011;45554;51.096;16.976;2024-02-21T06:35:28;10.50;;;4.60;;
59685;SDS011;45554;51.096;16.976;2024-02-21T06:37:57;11.20;;;5.00;;
59685;SDS011;45554;51.096;16.976;2024-02-21T06:40:25;13.20;;;5.40;;
59685;SDS011;45554;51.096;16.976;2024-02-21T06:42:54;11.90;;;4.80;;
59685;SDS011;45554;51.096;16.976;2024-02-21T06:45:22;11.70;;;4.50;;
59685;SDS011;45554;51.096;16.976;2024-02-21T06:47:50;13.90;;;5.00;;
59685;SDS011;45554;51.096;16.976;2024-02-21T06:50:20;12.90;;;5.40;;
59685;SDS011;45554;51.096;16.976;2024-02-21T06:52:48;14.00;;;5.40;;
59685;SDS011;45554;51.096;16.976;2024-02-21T06:55:17;11.60;;;5.20;;
59685;SDS011;45554;51.096;16.976;2024-02-21T07:02:20;14.00;;;5.60;;
59685;SDS011;45554;51.096;16.976;2024-02-21T07:05:08;12.10;;;6.00;;
59685;SDS011;45554;51.096;16.976;2024-02-21T07:08:01;12.00;;;5.70;;
59685;SDS011;45554;51.096;16.976;2024-02-21T07:10:31;12.90;;;5.40;;
59685;SDS011;45554;51.096;16.976;2024-02-21T07:13:00;15.70;;;6.60;;
59685;SDS011;45554;51.096;16.976;2024-02-21T07:19:21;17.00;;;5.90;;
59685;SDS011;45554;51.096;16.976;2024-02-21T07:22:39;14.50;;;5.40;;
59685;SDS011;45554;51.096;16.976;2024-02-21T07:25:08;14.40;;;5.70;;
59685;SDS011;45554;51.096;16.976;2024-02-21T07:27:39;14.70;;;5.30;;
59685;SDS011;45554;51.096;16.976;2024-02-21T07:30:25;13.10;;;4.90;;
59685;SDS011;45554;51.096;16.976;2024-02-21T07:32:55;15.80;;;5.60;;
59685;SDS011;45554;51.096;16.976;2024-02-21T07:35:29;15.80;;;5.90;;
59685;SDS011;45554;51.096;16.976;2024-02-21T07:38:17;15.40;;;6.20;;
59685;SDS011;45554;51.096;16.976;2024-02-21T07:40:55;14.60;;;5.00;;
59685;SDS011;45554;51.096;16.976;2024-02-21T07:43:35;14.50;;;6.10;;
59685;SDS011;45554;51.096;16.976;2024-02-21T07:46:29;15.50;;;5.30;;
59685;SDS011;45554;51.096;16.976;2024-02-21T07:49:24;14.40;;;5.60;;
59685;SDS011;45554;51.096;16.976;2024-02-21T07:53:35;15.40;;;6.20;;
59685;SDS011;45554;51.096;16.976;2024-02-21T08:01:18;16.00;;;6.50;;
59685;SDS011;45554;51.096;16.976;2024-02-21T08:03:56;15.90;;;5.60;;
59685;SDS011;45554;51.096;16.976;2024-02-21T08:06:50;14.10;;;5.50;;
59685;SDS011;45554;51.096;16.976;2024-02-21T08:10:14;14.10;;;5.80;;
59685;SDS011;45554;51.096;16.976;2024-02-21T08:13:04;16.60;;;5.80;;
59685;SDS011;45554;51.096;16.976;2024-02-21T08:15:35;12.70;;;5.40;;
59685;SDS011;45554;51.096;16.976;2024-02-21T08:18:17;15.20;;;5.80;;
59685;SDS011;45554;51.096;16.976;2024-02-21T08:21:01;15.90;;;5.90;;
59685;SDS011;45554;51.096;16.976;2024-02-21T08:23:32;12.70;;;5.30;;
59685;SDS011;45554;51.096;16.976;2024-02-21T08:26:45;14.60;;;5.00;;
59685;SDS011;45554;51.096;16.976;2024-02-21T08:34:30;13.50;;;6.10;;
59685;SDS011;45554;51.096;16.976;2024-02-21T08:38:26;14.90;;;5.80;;
59685;SDS011;45554;51.096;16.976;2024-02-21T09:17:51;15.50;;;5.40;;
59685;SDS011;45554;51.096;16.976;2024-02-21T09:21:37;17.80;;;5.50;;
59685;SDS011;45554;51.096;16.976;2024-02-21T09:24:59;17.50;;;6.00;;
59685;SDS011;45554;51.096;16.976;2024-02-21T09:28:04;14.70;;;6.20;;
59685;SDS011;45554;51.096;16.976;2024-02-21T09:35:36;16.90;;;6.00;;
59685;SDS011;45554;51.096;16.976;2024-02-21T09:43:35;13.90;;;5.70;;
59685;SDS011;45554;51.096;16.976;2024-02-21T09:46:19;14.20;;;5.40;;
59685;SDS011;45554;51.096;16.976;2024-02-21T09:49:47;13.80;;;5.70;;
59685;SDS011;45554;51.096;16.976;2024-02-21T09:52:34;16.50;;;5.30;;
59685;SDS011;45554;51.096;16.976;2024-02-21T09:55:20;14.50;;;5.20;;
59685;SDS011;45554;51.096;16.976;2024-02-21T09:58:10;14.00;;;5.50;;
59685;SDS011;45554;51.096;16.976;2024-02-21T10:01:30;15.30;;;5.90;;
59685;SDS011;45554;51.096;16.976;2024-02-21T10:04:20;12.70;;;5.10;;
59685;SDS011;45554;51.096;16.976;2024-02-21T10:07:26;15.80;;;6.60;;
59685;SDS011;45554;51.096;16.976;2024-02-21T10:10:44;14.80;;;5.30;;
59685;SDS011;45554;51.096;16.976;2024-02-21T10:13:44;12.00;;;5.80;;
59685;SDS011;45554;51.096;16.976;2024-02-21T10:17:25;14.00;;;5.70;;
59685;SDS011;45554;51.096;16.976;2024-02-21T10:20:16;15.90;;;6.00;;
59685;SDS011;45554;51.096;16.976;2024-02-21T10:23:40;11.50;;;5.90;;
59685;SDS011;45554;51.096;16.976;2024-02-21T10:26:47;16.10;;;5.80;;
59685;SDS011;45554;51.096;16.976;2024-02-21T10:29:39;10.70;;;5.30;;
59685;SDS011;45554;51.096;16.976;2024-02-21T10:33:05;15.60;;;6.00;;
59685;SDS011;45554;51.096;16.976;2024-02-21T10:35:53;11.80;;;5.40;;
59685;SDS011;45554;51.096;16.976;2024-02-21T10:39:39;12.50;;;6.10;;
59685;SDS011;45554;51.096;16.976;2024-02-21T10:43:21;12.70;;;6.00;;
59685;SDS011;45554;51.096;16.976;2024-02-21T10:51:09;12.40;;;5.80;;
59685;SDS011;45554;51.096;16.976;2024-02-21T10:57:57;12.10;;;5.40;;
59685;SDS011;45554;51.096;16.976;2024-02-21T11:02:35;11.20;;;5.90;;
59685;SDS011;45554;51.096;16.976;2024-02-21T11:05:48;10.90;;;5.60;;
59685;SDS011;45554;51.096;16.976;2024-02-21T11:09:28;12.20;;;6.20;;
59685;SDS011;45554;51.096;16.976;2024-02-21T11:12:12;11.10;;;5.60;;
59685;SDS011;45554;51.096;16.976;2024-02-21T11:20:13;13.80;;;6.00;;
59685;SDS011;45554;51.096;16.976;2024-02-21T11:27:18;11.60;;;5.50;;
59685;SDS011;45554;51.096;16.976;2024-02-21T11:30:44;11.60;;;5.70;;
59685;SDS011;45554;51.096;16.976;2024-02-21T11:34:06;11.60;;;5.70;;
59685;SDS011;45554;51.096;16.976;2024-02-21T13:15:32;10.70;;;5.90;;
59685;SDS011;45554;51.096;16.976;2024-02-21T13:19:15;13.70;;;5.90;;
59685;SDS011;45554;51.096;16.976;2024-02-21T13:35:27;11.90;;;5.60;;
59685;SDS011;45554;51.096;16.976;2024-02-21T13:38:23;14.80;;;5.70;;
59685;SDS011;45554;51.096;16.976;2024-02-21T13:46:03;9.90;;;5.40;;
59685;SDS011;45554;51.096;16.976;2024-02-21T13:49:02;12.20;;;5.60;;
59685;SDS011;45554;51.096;16.976;2024-02-21T13:58:41;14.00;;;5.20;;
59685;SDS011;45554;51.096;16.976;2024-02-21T14:35:43;13.50;;;5.70;;
59685;SDS011;45554;51.096;16.976;2024-02-21T15:00:11;12.70;;;6.30;;
59685;SDS011;45554;51.096;16.976;2024-02-21T15:03:28;11.50;;;5.70;;
59685;SDS011;45554;51.096;16.976;2024-02-21T15:06:13;9.90;;;5.60;;
59685;SDS011;45554;51.096;16.976;2024-02-21T15:09:48;12.20;;;5.20;;
59685;SDS011;45554;51.096;16.976;2024-02-21T15:12:42;11.50;;;5.20;;
59685;SDS011;45554;51.096;16.976;2024-02-21T15:15:13;9.70;;;4.80;;
59685;SDS011;45554;51.096;16.976;2024-02-21T15:18:19;10.40;;;4.80;;
59685;SDS011;45554;51.096;16.976;2024-02-21T15:21:28;11.00;;;4.80;;
59685;SDS011;45554;51.096;16.976;2024-02-21T15:24:16;12.00;;;5.50;;
59685;SDS011;45554;51.096;16.976;2024-02-21T15:27:02;11.80;;;5.10;;
59685;SDS011;45554;51.096;16.976;2024-02-21T15:29:58;10.30;;;4.80;;
59685;SDS011;45554;51.096;16.976;2024-02-21T15:32:53;11.60;;;5.20;;
59685;SDS011;45554;51.096;16.976;2024-02-21T15:35:41;12.10;;;5.60;;
59685;SDS011;45554;51.096;16.976;2024-02-21T15:38:45;9.70;;;4.80;;
59685;SDS011;45554;51.096;16.976;2024-02-21T15:41:34;11.60;;;6.10;;
59685;SDS011;45554;51.096;16.976;2024-02-21T15:44:18;12.50;;;6.00;;
59685;SDS011;45554;51.096;16.976;2024-02-21T15:47:05;13.20;;;6.70;;
59685;SDS011;45554;51.096;16.976;2024-02-21T15:49:38;12.40;;;6.50;;
59685;SDS011;45554;51.096;16.976;2024-02-21T15:52:14;13.50;;;6.50;;
59685;SDS011;45554;51.096;16.976;2024-02-21T15:54:53;13.10;;;6.80;;
59685;SDS011;45554;51.096;16.976;2024-02-21T16:01:58;14.20;;;7.00;;
59685;SDS011;45554;51.096;16.976;2024-02-21T16:04:41;13.60;;;7.10;;
59685;SDS011;45554;51.096;16.976;2024-02-21T16:07:13;15.40;;;7.20;;
59685;SDS011;45554;51.096;16.976;2024-02-21T16:09:41;13.30;;;6.70;;
59685;SDS011;45554;51.096;16.976;2024-02-21T16:12:20;13.80;;;7.60;;
59685;SDS011;45554;51.096;16.976;2024-02-21T16:14:59;14.20;;;7.80;;
59685;SDS011;45554;51.096;16.976;2024-02-21T16:17:42;16.10;;;8.70;;
59685;SDS011;45554;51.096;16.976;2024-02-21T16:20:14;15.50;;;8.20;;
59685;SDS011;45554;51.096;16.976;2024-02-21T16:23:08;17.30;;;8.10;;
59685;SDS011;45554;51.096;16.976;2024-02-21T16:25:50;13.50;;;8.10;;
59685;SDS011;45554;51.096;16.976;2024-02-21T16:28:29;16.50;;;8.00;;
59685;SDS011;45554;51.096;16.976;2024-02-21T16:31:00;17.50;;;8.40;;
59685;SDS011;45554;51.096;16.976;2024-02-21T16:33:40;13.30;;;7.90;;
59685;SDS011;45554;51.096;16.976;2024-02-21T16:36:23;17.00;;;8.50;;
59685;SDS011;45554;51.096;16.976;2024-02-21T16:39:02;18.60;;;8.70;;
59685;SDS011;45554;51.096;16.976;2024-02-21T16:41:53;17.20;;;8.50;;
59685;SDS011;45554;51.096;16.976;2024-02-21T16:44:33;14.20;;;7.70;;
59685;SDS011;45554;51.096;16.976;2024-02-21T16:47:17;14.40;;;7.60;;
59685;SDS011;45554;51.096;16.976;2024-02-21T16:52:20;14.40;;;7.60;;
59685;SDS011;45554;51.096;16.976;2024-02-21T16:55:45;15.00;;;7.60;;
59685;SDS011;45554;51.096;16.976;2024-02-21T16:58:27;19.40;;;8.70;;
59685;SDS011;45554;51.096;16.976;2024-02-21T17:01:12;19.30;;;8.40;;
59685;SDS011;45554;51.096;16.976;2024-02-21T17:03:50;16.50;;;8.50;;
59685;SDS011;45554;51.096;16.976;2024-02-21T17:06:22;15.80;;;8.80;;
59685;SDS011;45554;51.096;16.976;2024-02-21T17:08:57;13.80;;;7.70;;
59685;SDS011;45554;51.096;16.976;2024-02-21T17:11:27;16.70;;;8.70;;
59685;SDS011;45554;51.096;16.976;2024-02-21T17:13:57;16.00;;;7.60;;
59685;SDS011;45554;51.096;16.976;2024-02-21T17:16:29;15.80;;;8.90;;
59685;SDS011;45554;51.096;16.976;2024-02-21T17:19:00;17.00;;;9.60;;
59685;SDS011;45554;51.096;16.976;2024-02-21T17:21:33;16.40;;;8.30;;
59685;SDS011;45554;51.096;16.976;2024-02-21T17:24:08;16.50;;;8.20;;
59685;SDS011;45554;51.096;16.976;2024-02-21T17:26:39;13.40;;;8.50;;
59685;SDS011;45554;51.096;16.976;2024-02-21T17:29:21;15.70;;;8.30;;
59685;SDS011;45554;51.096;16.976;2024-02-21T17:31:54;18.90;;;9.50;;
59685;SDS011;45554;51.096;16.976;2024-02-21T17:34:30;18.30;;;8.60;;
59685;SDS011;45554;51.096;16.976;2024-02-21T17:38:12;16.00;;;8.90;;
59685;SDS011;45554;51.096;16.976;2024-02-21T17:40:52;17.40;;;8.70;;
59685;SDS011;45554;51.096;16.976;2024-02-21T17:43:25;16.40;;;8.40;;
59685;SDS011;45554;51.096;16.976;2024-02-21T17:46:05;17.20;;;9.50;;
59685;SDS011;45554;51.096;16.976;2024-02-21T17:48:35;18.90;;;10.30;;
59685;SDS011;45554;51.096;16.976;2024-02-21T17:51:04;22.00;;;10.80;;
59685;SDS011;45554;51.096;16.976;2024-02-21T17:53:33;17.80;;;10.60;;
59685;SDS011;45554;51.096;16.976;2024-02-21T17:56:02;22.40;;;11.00;;
59685;SDS011;45554;51.096;16.976;2024-02-21T17:58:34;20.40;;;11.60;;
59685;SDS011;45554;51.096;16.976;2024-02-21T18:01:02;22.40;;;11.20;;
59685;SDS011;45554;51.096;16.976;2024-02-21T18:03:31;22.60;;;10.90;;
59685;SDS011;45554;51.096;16.976;2024-02-21T18:06:01;19.00;;;10.30;;
59685;SDS011;45554;51.096;16.976;2024-02-21T18:08:45;19.70;;;10.00;;
59685;SDS011;45554;51.096;16.976;2024-02-21T18:11:13;20.30;;;10.30;;
59685;SDS011;45554;51.096;16.976;2024-02-21T18:13:45;22.10;;;12.00;;
59685;SDS011;45554;51.096;16.976;2024-02-21T18:16:15;22.80;;;10.90;;
59685;SDS011;45554;51.096;16.976;2024-02-21T18:18:44;17.00;;;10.70;;
59685;SDS011;45554;51.096;16.976;2024-02-21T18:21:12;21.00;;;11.90;;
59685;SDS011;45554;51.096;16.976;2024-02-21T18:23:41;20.90;;;12.00;;
59685;SDS011;45554;51.096;16.976;2024-02-21T18:26:16;19.50;;;12.10;;
59685;SDS011;45554;51.096;16.976;2024-02-21T18:28:44;22.10;;;12.30;;
59685;SDS011;45554;51.096;16.976;2024-02-21T18:31:16;21.10;;;13.00;;
59685;SDS011;45554;51.096;16.976;2024-02-21T18:33:47;23.40;;;12.20;;
59685;SDS011;45554;51.096;16.976;2024-02-21T18:36:18;26.50;;;16.00;;
59685;SDS011;45554;51.096;16.976;2024-02-21T18:39:01;24.90;;;14.80;;
59685;SDS011;45554;51.096;16.976;2024-02-21T18:41:36;21.60;;;14.40;;
59685;SDS011;45554;51.096;16.976;2024-02-21T18:44:14;24.60;;;13.70;;
59685;SDS011;45554;51.096;16.976;2024-02-21T18:46:46;18.50;;;11.90;;
59685;SDS011;45554;51.096;16.976;2024-02-21T18:49:14;24.40;;;13.50;;
59685;SDS011;45554;51.096;16.976;2024-02-21T18:51:45;25.00;;;13.10;;
59685;SDS011;45554;51.096;16.976;2024-02-21T18:54:17;24.10;;;13.00;;
59685;SDS011;45554;51.096;16.976;2024-02-21T18:56:45;22.40;;;13.80;;
59685;SDS011;45554;51.096;16.976;2024-02-21T18:59:18;21.00;;;12.50;;
59685;SDS011;45554;51.096;16.976;2024-02-21T19:01:51;22.30;;;13.10;;
59685;SDS011;45554;51.096;16.976;2024-02-21T19:04:23;21.10;;;13.30;;
59685;SDS011;45554;51.096;16.976;2024-02-21T19:06:53;25.00;;;13.40;;
59685;SDS011;45554;51.096;16.976;2024-02-21T19:09:25;25.70;;;16.20;;
59685;SDS011;45554;51.096;16.976;2024-02-21T19:11:54;23.80;;;14.00;;
59685;SDS011;45554;51.096;16.976;2024-02-21T19:14:23;22.90;;;13.90;;
59685;SDS011;45554;51.096;16.976;2024-02-21T19:16:56;54.60;;;28.40;;
59685;SDS011;45554;51.096;16.976;2024-02-21T19:19:26;119.10;;;48.20;;
59685;SDS011;45554;51.096;16.976;2024-02-21T19:21:55;176.30;;;70.60;;
59685;SDS011;45554;51.096;16.976;2024-02-21T19:24:27;50.80;;;25.50;;
59685;SDS011;45554;51.096;16.976;2024-02-21T19:26:58;34.60;;;19.10;;
59685;SDS011;45554;51.096;16.976;2024-02-21T19:29:30;30.30;;;17.10;;
59685;SDS011;45554;51.096;16.976;2024-02-21T19:31:58;30.70;;;18.60;;
59685;SDS011;45554;51.096;16.976;2024-02-21T19:34:27;30.00;;;19.00;;
59685;SDS011;45554;51.096;16.976;2024-02-21T19:39:26;32.20;;;18.70;;
59685;SDS011;45554;51.096;16.976;2024-02-21T19:42:15;33.50;;;19.60;;
59685;SDS011;45554;51.096;16.976;2024-02-21T19:45:03;34.60;;;21.00;;
59685;SDS011;45554;51.096;16.976;2024-02-21T19:50:04;32.10;;;18.90;;
59685;SDS011;45554;51.096;16.976;2024-02-21T19:52:34;36.30;;;20.00;;
59685;SDS011;45554;51.096;16.976;2024-02-21T19:55:03;29.30;;;17.10;;
59685;SDS011;45554;51.096;16.976;2024-02-21T19:57:32;31.00;;;16.40;;
59685;SDS011;45554;51.096;16.976;2024-02-21T20:00:02;26.70;;;15.60;;
59685;SDS011;45554;51.096;16.976;2024-02-21T20:02:41;25.90;;;14.40;;
59685;SDS011;45554;51.096;16.976;2024-02-21T20:05:42;22.00;;;13.20;;
59685;SDS011;45554;51.096;16.976;2024-02-21T20:08:11;25.10;;;14.70;;